Latest Weather Observations for Mount Moornapa

IDV60801

Issued at 5:32 pm EST Sunday 18 August 2019 (issued every 10 minutes, with the page automatically refreshed every 10 minutes)

About weather observations | Map of weather stations | Latest weather observations for VIC | Other Formats
Station Details ID: 085296 Name: MOUNT MOORNAPA Lat: -37.75 Lon: 147.14 Height: 480.0 m
Data from the previous 72 hours. | See also: Recent months at Mount Moornapa
Date/Time
EST
Temp
°C
App
Temp
°C
Dew
Point
°C
Rel
Hum
%
Delta-T
°C
Wind Press
QNH
hPa
Press
MSL
hPa
Rain since
9am
mm
Dir  Spd
km/h
Gust
km/h
Spd
kts
Gust
kts
18/05:30pm 14.8 8.2 2.0 42 5.8 NNW 26 48 14 26 - - 0.0
18/05:00pm 15.3 9.3 1.1 38 6.3 NNW 22 41 12 22 - - 0.0
18/04:30pm 15.8 9.4 0.8 36 6.7 NNW 24 44 13 24 - - 0.0
18/04:00pm 17.5 7.8 0.2 31 7.7 NW 41 76 22 41 - - 0.0
18/03:30pm 19.4 12.2 0.4 28 8.6 NW 28 57 15 31 - - 0.0
18/03:16pm 19.3 11.0 -0.1 27 8.7 NW 33 87 18 47 - - 0.0
18/03:02pm 19.4 11.6 -0.6 26 8.9 NW 30 65 16 35 - - 0.0
18/03:00pm 19.8 13.2 -0.2 26 9.0 NW 24 46 13 25 - - 0.0
18/02:42pm 19.5 12.2 0.0 27 8.8 NNW 28 50 15 27 - - 0.0
18/02:30pm 20.2 14.6 1.1 28 8.9 NNW 20 50 11 27 - - 0.0
18/02:00pm 20.0 14.6 1.4 29 8.7 NNW 19 50 10 27 - - 0.0
18/01:30pm 19.4 13.2 1.9 31 8.2 NNW 24 48 13 26 - - 0.0
18/01:01pm 18.5 10.7 1.5 32 7.8 NNW 32 61 17 33 - - 0.0
18/01:00pm 18.8 11.1 2.2 33 7.8 NNW 32 76 17 41 - - 0.0
18/12:34pm 18.5 12.4 0.6 30 8.1 NW 22 76 12 41 - - 0.0
18/12:30pm 19.7 15.0 3.4 34 7.9 NW 17 32 9 17 - - 0.0
18/12:00pm 18.2 13.8 2.9 36 7.2 NNW 15 35 8 19 - - 0.0
18/11:36am 17.4 10.5 2.6 37 6.9 NNW 28 54 15 29 - - 0.0
18/11:30am 17.8 12.2 3.3 38 6.9 NNW 22 44 12 24 - - 0.0
18/11:00am 16.8 10.8 3.5 41 6.3 NNW 24 46 13 25 - - 0.0
18/10:30am 16.0 8.1 2.4 40 6.3 NNW 33 57 18 31 - - 0.0
18/10:06am 15.5 8.6 2.7 42 5.9 NNW 28 54 15 29 - - 0.0
18/10:00am 15.2 8.8 3.0 44 5.7 NNW 26 50 14 27 - - 0.0
18/09:39am 14.2 7.3 2.5 45 5.3 NNW 28 52 15 28 - - 0.0
18/09:30am 13.7 8.4 2.9 48 4.9 NNW 20 46 11 25 - - 0.0
18/09:00am 12.7 7.6 3.1 52 4.4 NNW 19 32 10 17 - - 0.2
18/08:30am 11.8 7.4 2.5 53 4.1 NNW 15 20 8 11 - - 0.2
18/08:00am 11.1 5.9 2.2 54 3.9 NNW 19 28 10 15 - - 0.2
18/07:30am 10.4 5.1 1.8 55 3.7 NNW 19 30 10 16 - - 0.2
18/07:00am 10.5 5.5 1.3 53 3.9 NNW 17 24 9 13 - - 0.2
18/06:30am 9.3 4.0 1.9 60 3.2 NNW 19 26 10 14 - - 0.2
18/06:00am 9.1 3.7 2.2 62 3.0 NNW 20 28 11 15 - - 0.2
18/05:30am 9.4 4.9 2.0 60 3.2 NNW 15 24 8 13 - - 0.2
18/05:00am 9.1 4.6 2.0 61 3.1 N 15 22 8 12 - - 0.2
18/04:30am 9.3 4.7 1.7 59 3.3 N 15 20 8 11 - - 0.2
18/04:00am 8.4 4.1 1.3 61 3.0 N 13 20 7 11 - - 0.2
18/03:30am 8.8 5.3 1.2 59 3.2 NNE 9 17 5 9 - - 0.2
18/03:00am 8.6 5.6 2.0 63 2.8 NNE 7 13 4 7 - - 0.2
18/02:30am 8.1 4.5 3.2 71 2.1 N 11 17 6 9 - - 0.2
18/02:00am 7.3 4.1 2.8 73 1.9 N 9 15 5 8 - - 0.2
18/01:30am 8.8 4.8 3.0 67 2.5 N 13 22 7 12 - - 0.2
18/01:00am 8.3 5.6 3.8 73 2.0 NNE 7 13 4 7 - - 0.2
18/12:30am 8.4 5.0 4.0 74 2.0 N 11 19 6 10 - - 0.2
18/12:00am 8.3 4.5 3.9 74 2.0 N 13 22 7 12 - - 0.2
 
Date/Time
EST
Temp
°C
App
Temp
°C
Dew
Point
°C
Rel
Hum
%
Delta-T
°C
Wind Press
QNH
hPa
Press
MSL
hPa
Rain since
9am
mm
Dir  Spd
km/h
Gust
km/h
Spd
kts
Gust
kts
17/11:30pm 8.8 5.1 4.6 75 1.9 N 13 17 7 9 - - 0.2
17/11:00pm 9.1 5.6 5.5 78 1.7 N 13 17 7 9 - - 0.2
17/10:30pm 7.7 4.3 6.0 89 0.8 NNW 13 20 7 11 - - 0.2
17/10:00pm 7.8 4.6 6.7 93 0.5 N 13 19 7 10 - - 0.2
17/09:30pm 7.4 4.6 6.8 96 0.3 N 11 15 6 8 - - 0.2
17/09:00pm 7.1 4.6 6.7 97 0.2 N 9 15 5 8 - - 0.2
17/08:30pm 7.7 5.3 7.1 96 0.3 NNE 9 17 5 9 - - 0.0
17/08:00pm 7.9 5.6 7.3 96 0.3 NE 9 19 5 10 - - 0.0
17/07:30pm 7.6 5.2 7.2 97 0.2 E 9 19 5 10 - - 0.0
17/07:00pm 7.6 5.2 7.2 97 0.2 E 9 17 5 9 - - 0.0
17/06:30pm 7.8 5.4 7.1 95 0.3 E 9 17 5 9 - - 0.0
17/06:00pm 8.1 5.3 7.0 93 0.5 ESE 11 22 6 12 - - 0.0
17/05:30pm 8.6 6.2 7.1 90 0.7 ESE 9 19 5 10 - - 0.0
17/05:00pm 9.4 7.0 6.8 84 1.3 ESE 9 17 5 9 - - 0.0
17/04:30pm 9.9 7.5 6.8 81 1.5 ESE 9 19 5 10 - - 0.0
17/04:00pm 10.8 9.0 7.3 79 1.7 ESE 6 19 3 10 - - 0.0
17/03:30pm 11.3 9.4 7.4 77 1.9 E 7 19 4 10 - - 0.0
17/03:00pm 11.1 9.3 7.8 80 1.6 E 7 15 4 8 - - 0.0
17/02:30pm 11.8 10.2 7.9 77 2.0 E 6 13 3 7 - - 0.0
17/02:00pm 11.5 10.6 7.6 77 1.9 ESE 2 6 1 3 - - 0.0
17/01:30pm 11.1 9.6 6.8 75 2.1 ESE 4 9 2 5 - - 0.0
17/01:00pm 11.1 10.2 7.6 79 1.7 SE 2 9 1 5 - - 0.0
17/12:30pm 10.4 9.4 7.3 81 1.5 ESE 2 4 1 2 - - 0.0
17/12:00pm 10.9 10.0 7.6 80 1.6 NNE 2 6 1 3 - - 0.0
17/11:30am 8.9 7.3 6.3 84 1.2 NE 4 6 2 3 - - 0.0
17/11:00am 8.5 6.6 6.8 89 0.8 ENE 6 9 3 5 - - 0.0
17/10:30am 7.8 7.3 7.7 99 0.0 CALM 0 0 0 0 - - 0.0
17/10:00am 6.8 5.3 6.7 99 0.0 NNW 4 6 2 3 - - 0.0
17/09:30am 6.2 4.5 6.1 99 0.0 NNW 4 7 2 4 - - 0.0
17/09:00am 6.0 4.3 5.9 99 0.0 NW 4 6 2 3 - - 2.6
17/08:30am 5.4 3.2 5.3 99 0.0 NW 6 7 3 4 - - 2.6
17/08:00am 5.2 3.0 5.1 99 0.0 NW 6 9 3 5 - - 2.6
17/07:30am 5.1 2.8 5.0 99 0.0 NW 6 9 3 5 - - 2.6
17/07:00am 5.1 2.8 5.0 99 0.0 NW 6 11 3 6 - - 2.2
17/06:30am 5.1 2.6 5.0 99 0.0 WNW 7 13 4 7 - - 2.0
17/06:00am 5.2 2.3 4.9 98 0.1 W 9 13 5 7 - - 1.6
17/05:30am 6.0 3.5 4.0 87 0.9 WSW 6 13 3 7 - - 1.6
17/05:00am 6.2 3.1 3.7 84 1.1 W 9 17 5 9 - - 1.4
17/04:30am 6.0 2.9 3.7 85 1.0 WSW 9 19 5 10 - - 1.4
17/04:00am 6.1 3.0 3.4 83 1.2 WSW 9 15 5 8 - - 1.4
17/03:30am 6.6 3.3 2.7 76 1.7 W 9 22 5 12 - - 1.4
17/03:00am 6.6 3.3 2.5 75 1.7 W 9 17 5 9 - - 1.4
17/02:30am 6.6 3.4 2.9 77 1.6 WSW 9 28 5 15 - - 1.4
17/02:00am 6.5 2.9 3.1 79 1.5 WSW 11 24 6 13 - - 1.4
17/01:30am 6.5 2.7 3.7 82 1.2 WSW 13 24 7 13 - - 1.4
17/01:00am 6.6 3.5 3.8 82 1.2 WSW 9 26 5 14 - - 1.4
17/12:30am 6.7 2.5 3.7 81 1.3 WSW 15 24 8 13 - - 1.4
17/12:00am 6.7 2.9 4.0 83 1.2 WSW 13 26 7 14 - - 1.4
 
Date/Time
EST
Temp
°C
App
Temp
°C
Dew
Point
°C
Rel
Hum
%
Delta-T
°C
Wind Press
QNH
hPa
Press
MSL
hPa
Rain since
9am
mm
Dir  Spd
km/h
Gust
km/h
Spd
kts
Gust
kts
16/11:30pm 6.6 2.9 4.4 86 1.0 WSW 13 28 7 15 - - 1.4
16/11:00pm 6.4 2.7 4.6 88 0.8 W 13 32 7 17 - - 1.4
16/10:30pm 6.8 2.4 5.0 88 0.8 W 17 32 9 17 - - 1.4
16/10:00pm 6.9 3.3 5.1 88 0.8 WSW 13 26 7 14 - - 1.4
16/09:30pm 7.1 3.9 5.3 88 0.8 WSW 11 26 6 14 - - 1.4
16/09:00pm 7.3 3.7 5.0 85 1.0 WSW 13 26 7 14 - - 1.4
16/08:30pm 7.6 4.0 4.9 83 1.2 WSW 13 24 7 13 - - 1.4
16/08:00pm 7.7 4.4 4.7 81 1.4 WSW 11 22 6 12 - - 1.4
16/07:30pm 7.8 4.3 5.3 84 1.1 WNW 13 24 7 13 - - 1.4
16/07:00pm 7.5 5.2 5.6 88 0.9 WNW 7 17 4 9 - - 1.4
16/06:30pm 7.7 4.3 6.0 89 0.8 WNW 13 20 7 11 - - 1.4
16/06:00pm 7.8 4.5 6.3 90 0.7 W 13 24 7 13 - - 1.4
16/05:30pm 8.0 5.1 6.5 90 0.7 W 11 19 6 10 - - 1.0
16/05:00pm 9.8 7.1 5.4 74 2.1 W 9 19 5 10 - - 0.0
16/04:30pm 11.6 8.9 3.6 58 3.6 W 7 24 4 13 - - 0.0
16/04:00pm 12.1 8.9 3.1 54 4.1 NW 9 19 5 10 - - 0.0
16/03:30pm 13.4 8.2 2.3 47 5.0 NW 19 35 10 19 - - 0.0
16/03:00pm 14.0 8.4 3.2 48 5.0 NW 22 44 12 24 - - 0.0
16/02:30pm 13.9 7.2 3.9 51 4.7 NW 28 61 15 33 - - 0.0
16/02:24pm 12.6 5.8 3.3 53 4.2 NW 28 54 15 29 - - 0.0
16/02:00pm 12.9 7.9 4.6 57 3.9 NW 20 44 11 24 - - 0.0
16/01:30pm 13.0 6.4 5.9 62 3.4 NNW 30 59 16 32 - - 0.0
16/01:09pm 12.8 6.1 3.7 54 4.2 NW 28 52 15 28 - - 0.0
16/01:00pm 12.8 6.8 5.2 60 3.6 NW 26 54 14 29 - - 0.0
16/12:30pm 13.5 8.1 2.7 48 4.9 NW 20 41 11 22 - - 0.0
16/12:00pm 14.6 8.9 2.8 45 5.4 NW 22 43 12 23 - - 0.0
16/11:30am 13.0 6.7 1.7 46 5.0 NW 24 57 13 31 - - 0.0
16/11:00am 12.9 7.0 1.9 47 4.9 NW 22 50 12 27 - - 0.0
16/10:30am 12.6 7.5 1.0 45 5.0 NW 17 37 9 20 - - 0.0
16/10:02am 12.8 5.6 0.9 44 5.2 NNW 28 52 15 28 - - 0.0
16/10:00am 12.8 6.3 0.5 43 5.3 NNW 24 48 13 26 - - 0.0
16/09:30am 13.3 8.1 0.3 41 5.6 NW 17 33 9 18 - - 0.0
16/09:00am 13.3 8.9 0.3 41 5.6 NNW 13 28 7 15 - - 0.0
16/08:30am 12.7 7.8 -0.5 40 5.5 NNW 15 24 8 13 - - 0.0
16/08:00am 12.5 8.3 -1.1 39 5.6 N 11 19 6 10 - - 0.0
16/07:30am 12.2 7.2 -1.0 40 5.5 NNW 15 22 8 12 - - 0.0
16/07:00am 11.9 6.2 -0.6 42 5.2 NNW 19 37 10 20 - - 0.0
16/06:30am 11.8 6.9 -0.7 42 5.2 NNW 15 28 8 15 - - 0.0
16/06:00am 11.7 7.2 -0.4 43 5.0 NNW 13 22 7 12 - - 0.0
16/05:30am 11.4 6.6 -0.1 45 4.8 NNW 15 24 8 13 - - 0.0
16/05:00am 11.0 6.2 0.1 47 4.6 NNW 15 24 8 13 - - 0.0
16/04:30am 11.5 6.2 -0.3 44 4.9 NNW 17 35 9 19 - - 0.0
16/04:00am 11.5 5.3 -0.6 43 5.0 NNW 22 39 12 21 - - 0.0
16/03:30am 11.8 6.1 -0.4 43 5.1 NNW 19 37 10 20 - - 0.0
16/03:00am 11.4 5.7 -0.4 44 4.9 NNW 19 39 10 21 - - 0.0
16/02:31am 11.9 4.5 -0.6 42 5.2 NNW 28 46 15 25 - - 0.0
16/02:30am 11.9 4.9 -0.3 43 5.1 NNW 26 46 14 25 - - 0.0
16/02:00am 11.0 6.0 1.3 51 4.2 NNW 17 35 9 19 - - 0.0
16/01:30am 10.6 4.3 1.4 53 4.0 NNW 24 37 13 20 - - 0.0
16/01:00am 10.8 4.1 1.6 53 4.0 NNW 26 39 14 21 - - 0.0
16/12:30am 11.4 5.1 1.4 50 4.3 NNW 24 41 13 22 - - 0.0
16/12:00am 11.4 5.0 1.1 49 4.4 NNW 24 43 13 23 - - 0.0
 
Date/Time
EST
Temp
°C
App
Temp
°C
Dew
Point
°C
Rel
Hum
%
Delta-T
°C
Wind Press
QNH
hPa
Press
MSL
hPa
Rain since
9am
mm
Dir  Spd
km/h
Gust
km/h
Spd
kts
Gust
kts
15/11:30pm 11.3 4.9 1.0 49 4.4 NNW 24 43 13 23 - - 0.0
15/11:00pm 10.6 5.2 1.4 53 4.0 NNW 19 28 10 15 - - 0.0
15/10:30pm 10.3 5.3 1.4 54 3.8 NNW 17 24 9 13 - - 0.0
15/10:00pm 10.3 6.0 0.9 52 4.0 N 13 20 7 11 - - 0.0
15/09:30pm 10.4 5.5 -0.4 47 4.4 NNW 15 32 8 17 - - 0.0
15/09:00pm 10.5 4.8 -0.6 46 4.6 NNW 19 28 10 15 - - 0.0
15/08:30pm 10.4 4.7 -0.4 47 4.4 NNW 19 26 10 14 - - 0.0
15/08:00pm 10.5 5.7 0.0 48 4.4 N 15 22 8 12 - - 0.0
15/07:30pm 10.6 5.4 0.3 49 4.3 NNW 17 26 9 14 - - 0.0
15/07:00pm 10.7 5.2 0.4 49 4.3 NNW 19 28 10 15 - - 0.0
15/06:30pm 10.8 6.8 0.8 50 4.2 N 11 17 6 9 - - 0.0
15/06:00pm 11.2 7.6 0.9 49 4.4 N 9 22 5 12 - - 0.0

Other formats

Comma delimited format used in spreadsheet applications
http://www.bom.gov.au/fwo/IDV60801/IDV60801.95913.axf

JavaScript Object Notation format (JSON) in row-major order
http://www.bom.gov.au/fwo/IDV60801/IDV60801.95913.json

Data quality

Most of these data are generated automatically and are frequently updated. Quality checks on data are not normally performed. It is possible for incorrect values to appear. Refer to information at About Latest Weather Observations and please check the disclaimer before using these data.